Time;durP1;ratioP1;P1;durP2;ratioP2;P2;SDS_P1;SDS_P2;PMS_P1;PMS_P2;Temp;Humidity;BMP_temperature;BMP_pressure;BME280_temperature;BME280_humidity;BME280_pressure;Samples;Min_cycle;Max_cycle;Signal;HPM_P1;HPM_P2
2022/08/03 00:01:17;;;;;;;5.75;3.70;;;21.50;90.80;;;;;;4993168;28;20398;-54
2022/08/03 00:03:43;;;;;;;3.47;3.08;;;21.50;90.80;;;;;;4990171;28;20018;-54
2022/08/03 00:06:09;;;;;;;3.63;3.33;;;21.50;90.70;;;;;;4989499;28;20029;-54
2022/08/03 00:08:34;;;;;;;4.45;3.97;;;21.50;90.70;;;;;;4992638;28;20077;-54
2022/08/03 00:11:00;;;;;;;3.80;3.40;;;21.50;90.50;;;;;;4994755;28;20389;-54
2022/08/03 00:13:26;;;;;;;4.57;4.18;;;21.50;90.70;;;;;;4993303;28;20619;-54
2022/08/03 00:15:52;;;;;;;4.60;4.20;;;21.50;90.60;;;;;;5001603;28;20052;-55
2022/08/03 00:18:18;;;;;;;5.45;4.95;;;21.50;90.70;;;;;;4994410;28;20026;-53
2022/08/03 00:20:44;;;;;;;4.40;4.00;;;21.50;90.70;;;;;;4991737;28;20015;-54
2022/08/03 00:23:10;;;;;;;4.82;4.32;;;21.40;90.80;;;;;;4997280;28;20381;-54
2022/08/03 00:25:36;;;;;;;5.32;4.60;;;21.40;90.90;;;;;;5002735;28;20049;-54
2022/08/03 00:28:03;;;;;;;4.93;4.43;;;21.40;90.90;;;;;;4995194;28;20068;-53
2022/08/03 00:30:30;;;;;;;5.40;4.50;;;21.40;90.90;;;;;;4992066;28;20031;-54
2022/08/03 00:32:56;;;;;;;5.18;4.68;;;21.30;90.90;;;;;;4997257;28;20031;-53
2022/08/03 00:35:22;;;;;;;5.22;4.72;;;21.30;91.00;;;;;;4991908;28;20098;-55
2022/08/03 00:37:47;;;;;;;5.50;5.00;;;21.30;91.20;;;;;;5003116;28;20148;-54
2022/08/03 00:40:15;;;;;;;5.13;4.63;;;21.30;91.20;;;;;;4997075;28;20045;-54
2022/08/03 00:42:50;;;;;;;5.43;4.93;;;21.30;91.30;;;;;;4991310;28;20068;-54
2022/08/03 00:45:20;;;;;;;4.53;4.13;;;21.30;91.30;;;;;;4994562;28;20104;-54
2022/08/03 00:47:46;;;;;;;6.95;6.13;;;21.30;91.40;;;;;;4998215;28;20541;-54
2022/08/03 00:50:12;;;;;;;5.35;4.85;;;21.30;91.40;;;;;;4995169;28;20161;-54
2022/08/03 00:52:38;;;;;;;7.43;5.65;;;21.30;91.30;;;;;;4994465;28;20390;-54
2022/08/03 00:55:04;;;;;;;6.05;5.45;;;21.30;91.40;;;;;;4995363;28;20021;-54
2022/08/03 00:57:31;;;;;;;6.82;6.03;;;21.20;91.40;;;;;;4987284;28;20039;-54
2022/08/03 00:59:58;;;;;;;5.50;5.00;;;21.20;91.30;;;;;;5010233;28;20121;-54
2022/08/03 01:02:25;;;;;;;5.18;4.60;;;21.20;91.30;;;;;;4989944;28;20177;-53
2022/08/03 01:04:51;;;;;;;5.15;4.38;;;21.20;91.20;;;;;;4996225;28;20482;-52
2022/08/03 01:07:43;;;;;;;6.32;5.60;;;21.10;91.20;;;;;;5005056;28;20026;-55
2022/08/03 01:10:14;;;;;;;5.00;4.40;;;21.20;91.30;;;;;;4989318;28;20133;-53
2022/08/03 01:13:08;;;;;;;5.10;4.60;;;21.10;91.40;;;;;;5001751;28;20053;-55
2022/08/03 01:15:33;;;;;;;5.53;4.88;;;21.10;91.50;;;;;;4959192;28;20436;-54
2022/08/03 01:18:08;;;;;;;7.25;5.40;;;21.10;91.70;;;;;;4993393;28;20098;-53
2022/08/03 01:20:37;;;;;;;4.75;4.25;;;21.10;91.80;;;;;;4995157;28;20486;-54
2022/08/03 01:23:41;;;;;;;5.30;4.55;;;21.00;91.90;;;;;;4995267;28;20098;-53
2022/08/03 01:26:47;;;;;;;4.50;4.10;;;21.00;92.00;;;;;;4998079;28;20103;-54
2022/08/03 01:29:44;;;;;;;4.70;4.25;;;21.00;92.10;;;;;;4996146;28;20036;-54
2022/08/03 01:32:14;;;;;;;5.97;5.25;;;21.00;92.30;;;;;;4995373;28;20504;-53
2022/08/03 01:34:50;;;;;;;5.25;4.72;;;20.90;92.50;;;;;;4993076;28;20110;-54
2022/08/03 01:37:25;;;;;;;5.45;4.60;;;20.90;92.50;;;;;;5003757;28;20026;-54
2022/08/03 01:39:56;;;;;;;5.63;5.00;;;20.90;92.70;;;;;;4991671;28;20034;-53
2022/08/03 01:42:24;;;;;;;4.63;4.07;;;20.90;92.90;;;;;;4997964;28;20457;-53
2022/08/03 01:44:51;;;;;;;4.40;4.00;;;20.90;93.00;;;;;;4995755;28;20042;-53
2022/08/03 01:47:20;;;;;;;4.03;3.33;;;20.90;93.00;;;;;;4995921;28;20470;-52
2022/08/03 01:49:48;;;;;;;4.13;2.97;;;20.90;93.10;;;;;;5007211;28;20033;-53
2022/08/03 01:52:18;;;;;;;2.72;2.53;;;20.90;92.90;;;;;;4996451;28;20042;-53
2022/08/03 01:54:48;;;;;;;3.22;2.95;;;20.90;92.90;;;;;;4991484;28;20089;-53
2022/08/03 01:57:16;;;;;;;3.67;3.37;;;20.90;92.70;;;;;;4996027;28;20492;-53
2022/08/03 01:59:43;;;;;;;3.53;3.22;;;20.90;92.60;;;;;;4994131;28;20341;-53
2022/08/03 02:02:12;;;;;;;4.07;3.65;;;20.90;92.70;;;;;;4987843;28;20029;-53
2022/08/03 02:04:40;;;;;;;3.55;2.97;;;20.90;92.70;;;;;;4994009;28;20023;-53
2022/08/03 02:07:08;;;;;;;3.63;3.30;;;20.90;92.70;;;;;;4995518;28;20030;-54
2022/08/03 02:09:37;;;;;;;4.55;4.03;;;20.80;92.90;;;;;;4993665;28;20390;-53
2022/08/03 02:12:07;;;;;;;4.63;4.03;;;20.80;93.00;;;;;;5001476;28;20489;-53
2022/08/03 02:14:34;;;;;;;4.78;4.15;;;20.80;93.10;;;;;;5001113;28;20034;-53
2022/08/03 02:17:01;;;;;;;4.45;4.00;;;20.80;93.30;;;;;;4989165;28;20113;-53
2022/08/03 02:19:27;;;;;;;4.50;3.88;;;20.80;93.20;;;;;;4992195;28;20027;-54
2022/08/03 02:21:53;;;;;;;4.18;3.78;;;20.80;93.20;;;;;;4998354;28;20092;-53
2022/08/03 02:24:19;;;;;;;4.47;4.07;;;20.80;93.30;;;;;;4999186;28;20037;-54
2022/08/03 02:26:45;;;;;;;4.40;4.00;;;20.80;93.40;;;;;;4992595;28;20057;-54
2022/08/03 02:29:21;;;;;;;3.83;3.10;;;20.80;93.40;;;;;;4995358;28;20089;-53
2022/08/03 02:31:49;;;;;;;3.20;2.90;;;20.70;93.20;;;;;;4995064;28;20029;-53
2022/08/03 02:34:18;;;;;;;3.60;3.30;;;20.80;93.20;;;;;;4994369;28;20503;-53
2022/08/03 02:36:48;;;;;;;4.72;4.03;;;20.80;93.10;;;;;;4998263;28;20022;-54
2022/08/03 02:39:19;;;;;;;3.80;3.40;;;20.80;93.20;;;;;;4995603;28;20070;-53
2022/08/03 02:41:54;;;;;;;3.55;3.17;;;20.80;93.30;;;;;;4994515;28;20019;-52
2022/08/03 02:44:24;;;;;;;5.28;4.78;;;20.80;93.40;;;;;;4994912;28;20026;-55
2022/08/03 02:46:55;;;;;;;3.53;3.22;;;20.80;93.80;;;;;;4993469;28;20034;-54
2022/08/03 02:49:23;;;;;;;2.95;2.70;;;20.80;93.30;;;;;;4992267;28;20110;-55
2022/08/03 02:51:51;;;;;;;3.55;3.25;;;20.80;93.30;;;;;;4998440;28;20109;-53
2022/08/03 02:54:18;;;;;;;3.72;3.30;;;20.80;93.30;;;;;;4998172;28;20026;-54
2022/08/03 02:56:46;;;;;;;4.28;3.40;;;20.80;93.30;;;;;;4994127;28;20026;-53
2022/08/03 02:59:13;;;;;;;4.65;3.97;;;20.80;93.40;;;;;;4991872;28;20030;-54
2022/08/03 03:01:39;;;;;;;4.50;3.78;;;20.80;93.40;;;;;;4996650;28;20018;-53
2022/08/03 03:04:06;;;;;;;6.70;5.50;;;20.80;93.50;;;;;;4988964;28;20103;-54
2022/08/03 03:06:32;;;;;;;7.22;6.45;;;20.80;93.60;;;;;;4999202;28;20022;-55
2022/08/03 03:08:59;;;;;;;6.68;5.97;;;20.90;93.80;;;;;;4996795;28;20018;-54
2022/08/03 03:11:25;;;;;;;7.00;6.28;;;20.90;94.00;;;;;;5003587;28;20501;-54
2022/08/03 03:13:53;;;;;;;7.57;6.78;;;20.90;94.10;;;;;;4996016;28;20038;-54
2022/08/03 03:16:19;;;;;;;9.75;8.75;;;20.90;94.30;;;;;;4993513;28;20141;-53
2022/08/03 03:18:47;;;;;;;8.63;7.72;;;21.00;94.50;;;;;;4993063;28;20025;-54
2022/08/03 03:21:16;;;;;;;6.57;5.53;;;21.00;94.50;;;;;;5005481;28;20049;-55
2022/08/03 03:23:42;;;;;;;7.75;6.85;;;21.00;94.50;;;;;;5004596;28;20045;-54
2022/08/03 03:26:08;;;;;;;8.70;7.72;;;21.00;94.60;;;;;;5001422;28;20030;-54
2022/08/03 03:28:38;;;;;;;6.88;6.18;;;21.00;94.60;;;;;;4994126;28;20385;-53
2022/08/03 03:31:05;;;;;;;9.48;8.20;;;21.00;94.70;;;;;;4991172;28;20109;-53
2022/08/03 03:33:32;;;;;;;10.57;8.70;;;21.10;94.70;;;;;;4977958;28;20114;-54
2022/08/03 03:35:58;;;;;;;9.50;7.90;;;21.10;94.80;;;;;;4991817;28;20164;-54
2022/08/03 03:38:24;;;;;;;9.20;7.50;;;21.10;94.80;;;;;;4989343;28;20014;-53
2022/08/03 03:40:50;;;;;;;11.25;9.15;;;21.10;94.90;;;;;;4994274;28;20048;-54
2022/08/03 03:43:17;;;;;;;8.88;7.75;;;21.00;94.90;;;;;;4992272;28;20077;-54
2022/08/03 03:45:44;;;;;;;8.70;7.80;;;21.10;94.90;;;;;;4993966;28;20030;-54
2022/08/03 03:48:10;;;;;;;9.90;8.40;;;21.00;94.80;;;;;;4988554;28;20110;-54
2022/08/03 03:50:39;;;;;;;9.40;7.82;;;21.00;94.90;;;;;;4987489;28;20057;-54
2022/08/03 03:53:09;;;;;;;7.97;6.90;;;21.00;95.00;;;;;;4993815;28;20418;-53
2022/08/03 03:55:36;;;;;;;8.60;7.10;;;21.00;94.90;;;;;;4997877;28;20025;-54
2022/08/03 03:58:02;;;;;;;6.82;6.15;;;21.00;94.90;;;;;;4995913;28;20184;-54
2022/08/03 04:00:29;;;;;;;9.13;7.82;;;21.00;94.90;;;;;;4992531;28;20030;-54
2022/08/03 04:02:55;;;;;;;9.95;8.07;;;21.00;95.00;;;;;;4986931;28;20035;-54
2022/08/03 04:11:03;;;;;;;9.05;7.75;;;21.00;95.10;;;;;;4987051;28;20045;-54
2022/08/03 04:14:21;;;;;;;9.35;7.38;;;21.00;95.10;;;;;;4997136;28;20037;-54
2022/08/03 04:17:03;;;;;;;7.68;6.57;;;21.00;95.10;;;;;;4971188;28;20030;-54
2022/08/03 04:19:36;;;;;;;7.25;5.95;;;21.00;95.00;;;;;;4991693;28;20022;-54
2022/08/03 04:22:06;;;;;;;8.13;6.53;;;21.00;95.10;;;;;;4997559;28;20034;-55
2022/08/03 04:24:45;;;;;;;8.02;6.88;;;21.00;95.10;;;;;;5002279;28;20038;-55
2022/08/03 04:27:14;;;;;;;8.57;6.82;;;21.10;95.00;;;;;;4999957;28;20105;-55
2022/08/03 04:29:44;;;;;;;9.63;7.05;;;21.10;95.10;;;;;;4999830;28;20054;-54
2022/08/03 04:32:11;;;;;;;6.95;6.20;;;21.10;95.20;;;;;;4996573;28;20030;-53
2022/08/03 04:34:37;;;;;;;7.80;6.80;;;21.10;95.10;;;;;;5005120;28;20022;-53
2022/08/03 04:37:09;;;;;;;8.40;7.53;;;21.10;95.10;;;;;;4996604;28;20389;-54
2022/08/03 04:39:36;;;;;;;9.07;7.47;;;21.10;94.90;;;;;;5000765;28;20389;-53
2022/08/03 04:42:05;;;;;;;8.55;7.40;;;21.20;94.90;;;;;;4994527;28;20682;-54
2022/08/03 04:44:36;;;;;;;8.00;7.10;;;21.20;94.70;;;;;;4998567;28;20085;-54
2022/08/03 04:47:02;;;;;;;9.07;6.88;;;21.20;94.70;;;;;;5004818;28;20037;-54
2022/08/03 04:49:29;;;;;;;9.00;6.38;;;21.20;94.90;;;;;;5002495;28;20034;-54
2022/08/03 04:51:55;;;;;;;8.13;7.10;;;21.20;94.80;;;;;;4997877;28;20022;-55
2022/08/03 04:54:20;;;;;;;7.85;7.03;;;21.20;94.90;;;;;;4993824;28;20026;-54
2022/08/03 04:56:46;;;;;;;9.35;7.55;;;21.20;94.80;;;;;;4998175;28;20018;-54
2022/08/03 04:59:12;;;;;;;9.57;7.78;;;21.20;94.80;;;;;;4993000;28;20034;-55
2022/08/03 05:01:41;;;;;;;9.15;8.13;;;21.20;94.80;;;;;;4999610;28;20347;-54
2022/08/03 05:04:07;;;;;;;9.75;7.75;;;21.30;94.80;;;;;;4987259;28;20142;-54
2022/08/03 05:06:33;;;;;;;8.82;7.50;;;21.30;94.80;;;;;;4991764;28;20113;-54
2022/08/03 05:08:58;;;;;;;8.98;7.75;;;21.30;94.80;;;;;;4996447;28;20099;-53
2022/08/03 05:11:24;;;;;;;8.38;6.75;;;21.30;94.70;;;;;;5001613;28;20034;-54
2022/08/03 05:13:53;;;;;;;9.38;8.10;;;21.40;94.80;;;;;;5006272;28;20168;-54
2022/08/03 05:16:18;;;;;;;10.90;9.60;;;21.40;94.80;;;;;;4995318;28;20383;-54
2022/08/03 05:18:44;;;;;;;8.63;7.53;;;21.40;94.70;;;;;;4986830;28;20026;-55
2022/08/03 05:21:13;;;;;;;9.15;8.02;;;21.40;94.60;;;;;;5006004;28;20033;-54
2022/08/03 05:23:39;;;;;;;10.95;8.18;;;21.40;94.50;;;;;;5005306;28;20022;-54
2022/08/03 05:26:04;;;;;;;8.55;7.45;;;21.40;94.50;;;;;;5001158;28;20120;-55
2022/08/03 05:28:30;;;;;;;8.35;6.95;;;21.40;94.50;;;;;;4992815;28;20069;-54
2022/08/03 05:30:56;;;;;;;8.50;7.20;;;21.50;94.50;;;;;;4991564;28;20563;-54
2022/08/03 05:33:22;;;;;;;8.00;7.13;;;21.50;94.40;;;;;;4991671;28;20030;-55
2022/08/03 05:35:47;;;;;;;10.20;7.95;;;21.50;94.40;;;;;;4991341;28;20069;-54
2022/08/03 05:38:13;;;;;;;8.40;7.50;;;21.50;94.40;;;;;;4985741;28;20030;-55
2022/08/03 05:40:38;;;;;;;7.07;6.32;;;21.50;94.40;;;;;;4996491;28;20026;-54
2022/08/03 05:43:04;;;;;;;9.95;7.80;;;21.50;94.50;;;;;;4992148;28;20052;-55
2022/08/03 05:45:30;;;;;;;9.77;7.43;;;21.50;94.50;;;;;;4994398;28;20037;-55
2022/08/03 05:47:55;;;;;;;8.93;7.25;;;21.50;94.50;;;;;;4994003;28;20025;-54
2022/08/03 05:50:21;;;;;;;10.50;8.15;;;21.50;94.40;;;;;;4991273;28;20175;-55
2022/08/03 05:52:47;;;;;;;9.60;7.28;;;21.50;94.30;;;;;;4994334;28;20018;-54
2022/08/03 05:55:13;;;;;;;10.30;7.80;;;21.50;94.30;;;;;;4984923;28;20126;-54
2022/08/03 05:57:40;;;;;;;8.63;7.20;;;21.50;94.40;;;;;;4990224;28;20101;-54
2022/08/03 06:00:10;;;;;;;9.32;7.60;;;21.50;94.30;;;;;;4987295;28;20027;-54
2022/08/03 06:02:37;;;;;;;9.02;8.05;;;21.60;94.40;;;;;;4965897;28;20570;-54
2022/08/03 06:05:03;;;;;;;10.23;8.13;;;21.60;94.40;;;;;;4982059;28;20030;-54
2022/08/03 06:07:29;;;;;;;8.55;7.55;;;21.60;94.50;;;;;;4988058;28;20038;-54
2022/08/03 06:09:54;;;;;;;10.02;8.52;;;21.60;94.50;;;;;;4994985;28;20113;-56
2022/08/03 06:12:20;;;;;;;9.93;8.02;;;21.60;94.50;;;;;;4981833;28;20123;-54
2022/08/03 06:14:46;;;;;;;8.90;7.95;;;21.70;94.40;;;;;;4989383;28;20026;-54
2022/08/03 06:17:11;;;;;;;11.82;9.55;;;21.70;94.20;;;;;;4982541;28;20034;-55
2022/08/03 06:19:37;;;;;;;12.20;9.68;;;21.70;94.20;;;;;;4990356;28;20055;-56
2022/08/03 06:22:03;;;;;;;9.50;8.50;;;21.70;94.20;;;;;;4992407;28;20022;-54
2022/08/03 06:24:28;;;;;;;10.45;8.45;;;21.70;94.10;;;;;;4986015;28;20033;-56
2022/08/03 06:26:54;;;;;;;13.02;10.95;;;21.70;94.10;;;;;;4980283;28;20077;-55
2022/08/03 06:29:20;;;;;;;11.75;9.00;;;21.70;94.10;;;;;;4981978;28;20030;-56
2022/08/03 06:31:45;;;;;;;10.95;9.00;;;21.70;94.00;;;;;;4981890;28;20477;-57
2022/08/03 06:34:11;;;;;;;10.43;8.23;;;21.70;94.00;;;;;;4991020;28;20077;-55
2022/08/03 06:36:37;;;;;;;11.15;9.15;;;21.70;94.00;;;;;;4982495;28;20038;-56
2022/08/03 06:39:03;;;;;;;10.40;8.43;;;21.70;94.10;;;;;;4986718;28;20054;-55
2022/08/03 06:41:29;;;;;;;10.20;7.85;;;21.70;94.20;;;;;;4981106;28;20674;-55
2022/08/03 06:43:54;;;;;;;9.82;7.68;;;21.80;94.20;;;;;;4979075;28;20030;-56
2022/08/03 06:46:21;;;;;;;12.45;9.23;;;21.80;94.20;;;;;;4973705;28;20045;-57
2022/08/03 06:48:46;;;;;;;8.52;7.63;;;21.80;94.10;;;;;;4977333;28;20031;-56
2022/08/03 06:51:13;;;;;;;7.40;6.43;;;21.80;94.20;;;;;;4972971;28;20418;-55
2022/08/03 06:53:39;;;;;;;8.88;7.13;;;21.80;94.20;;;;;;4972577;28;20034;-56
2022/08/03 06:56:06;;;;;;;9.30;7.75;;;21.90;94.30;;;;;;4966481;28;20117;-55
2022/08/03 06:58:32;;;;;;;8.63;7.68;;;22.00;94.50;;;;;;4974563;28;20448;-55
2022/08/03 07:00:58;;;;;;;8.02;7.03;;;22.10;94.90;;;;;;4976709;28;20449;-59
2022/08/03 07:03:23;;;;;;;7.85;7.05;;;22.20;94.60;;;;;;4969790;28;20182;-56
2022/08/03 07:05:50;;;;;;;8.65;7.30;;;22.40;94.40;;;;;;4961003;28;20034;-55
2022/08/03 07:08:16;;;;;;;7.90;7.10;;;22.50;94.20;;;;;;4970561;28;20158;-56
2022/08/03 07:10:43;;;;;;;9.93;8.30;;;22.70;93.70;;;;;;4977583;28;20042;-54
2022/08/03 07:13:09;;;;;;;8.35;6.93;;;22.80;93.40;;;;;;4970739;28;20047;-56
2022/08/03 07:15:35;;;;;;;7.88;6.63;;;22.90;93.10;;;;;;4966221;28;20026;-57
2022/08/03 07:18:01;;;;;;;9.00;7.93;;;23.00;92.80;;;;;;4969920;28;20035;-56
2022/08/03 07:20:27;;;;;;;7.90;7.05;;;23.10;92.50;;;;;;4982774;28;20433;-55
2022/08/03 07:22:52;;;;;;;8.18;7.38;;;23.10;92.10;;;;;;4969838;28;20066;-55
2022/08/03 07:25:19;;;;;;;7.40;6.57;;;23.10;91.80;;;;;;4967064;28;20379;-55
2022/08/03 07:27:45;;;;;;;7.82;6.57;;;23.10;91.60;;;;;;4966428;28;20034;-54
2022/08/03 07:30:12;;;;;;;7.65;6.80;;;23.10;91.60;;;;;;4967130;28;20047;-56
2022/08/03 07:32:38;;;;;;;7.10;6.18;;;23.10;91.40;;;;;;4976765;28;20022;-54
2022/08/03 07:35:05;;;;;;;6.78;5.93;;;23.20;91.30;;;;;;4963530;28;20560;-55
2022/08/03 07:37:31;;;;;;;7.55;6.50;;;23.20;91.20;;;;;;4977245;28;20101;-56
2022/08/03 07:39:58;;;;;;;7.18;6.47;;;23.20;91.20;;;;;;4967153;28;20022;-55
2022/08/03 07:42:25;;;;;;;7.50;6.32;;;23.20;91.20;;;;;;4953137;28;20034;-56
2022/08/03 07:44:51;;;;;;;8.65;6.60;;;23.30;91.10;;;;;;4964547;28;20049;-57
2022/08/03 07:47:21;;;;;;;7.28;6.47;;;23.30;91.10;;;;;;4967917;28;20038;-56
2022/08/03 07:49:47;;;;;;;6.60;5.93;;;23.30;91.10;;;;;;4970816;28;20041;-56
2022/08/03 07:54:57;;;;;;;6.55;5.57;;;23.40;90.90;;;;;;4965855;28;20029;-56
2022/08/03 07:57:23;;;;;;;7.07;6.38;;;23.40;90.90;;;;;;4964765;28;20031;-55
2022/08/03 07:59:48;;;;;;;7.25;6.35;;;23.40;90.70;;;;;;4965677;28;20030;-56
2022/08/03 08:02:14;;;;;;;8.60;7.30;;;23.50;90.50;;;;;;4968937;28;20584;-57
2022/08/03 08:04:40;;;;;;;7.22;6.50;;;23.40;90.40;;;;;;4977287;28;20031;-52
2022/08/03 08:07:06;;;;;;;6.97;6.28;;;23.50;90.30;;;;;;4979840;28;20056;-53
2022/08/03 08:09:33;;;;;;;7.50;6.65;;;23.40;90.10;;;;;;4975882;28;20038;-53
2022/08/03 08:11:58;;;;;;;7.13;6.43;;;23.40;90.00;;;;;;4970125;28;20038;-54
2022/08/03 08:14:24;;;;;;;6.35;5.63;;;23.50;90.00;;;;;;4973301;28;20045;-55
2022/08/03 08:16:50;;;;;;;7.10;6.35;;;23.50;90.00;;;;;;4974276;28;20034;-54
2022/08/03 08:19:16;;;;;;;7.80;7.00;;;23.50;90.00;;;;;;4964508;28;20057;-52
2022/08/03 08:21:42;;;;;;;7.68;6.88;;;23.50;89.60;;;;;;4968953;28;20129;-54
2022/08/03 08:24:08;;;;;;;7.03;6.30;;;23.50;89.60;;;;;;4968979;28;20070;-55
2022/08/03 08:26:34;;;;;;;6.95;6.25;;;23.50;89.30;;;;;;4973463;28;20458;-53
2022/08/03 08:29:00;;;;;;;6.93;6.22;;;23.50;89.00;;;;;;4974272;28;20038;-54
2022/08/03 08:31:26;;;;;;;7.10;6.05;;;23.60;89.00;;;;;;4970921;28;21840;-52
2022/08/03 08:33:51;;;;;;;6.85;6.15;;;23.60;88.70;;;;;;4963641;28;20066;-55
2022/08/03 08:36:17;;;;;;;7.00;6.28;;;23.60;88.60;;;;;;4957208;28;20458;-54
2022/08/03 08:38:43;;;;;;;7.18;5.95;;;23.60;88.50;;;;;;4965248;28;20097;-53
2022/08/03 08:41:11;;;;;;;7.38;5.70;;;23.60;88.60;;;;;;4958371;28;20266;-53
2022/08/03 08:43:37;;;;;;;7.10;6.05;;;23.70;88.30;;;;;;4961266;28;20401;-53
2022/08/03 08:46:04;;;;;;;6.80;5.75;;;23.70;88.30;;;;;;4960398;28;20030;-54
2022/08/03 08:48:30;;;;;;;5.97;5.35;;;23.70;88.10;;;;;;4967541;28;20520;-53
2022/08/03 08:50:56;;;;;;;6.22;5.53;;;23.80;88.30;;;;;;4953997;28;20046;-54
2022/08/03 08:53:27;;;;;;;7.20;6.07;;;23.80;88.30;;;;;;4964792;28;20552;-53
2022/08/03 08:55:54;;;;;;;;;;;23.90;88.00;;;;;;4953302;28;20678;-54
2022/08/03 08:58:21;;;;;;;5.82;5.10;;;23.90;87.70;;;;;;4958703;28;20687;-54
2022/08/03 09:00:47;;;;;;;6.90;5.65;;;24.00;88.00;;;;;;4959270;28;20034;-54
2022/08/03 09:03:13;;;;;;;6.35;5.57;;;24.00;87.80;;;;;;4961143;28;20921;-53
2022/08/03 09:05:42;;;;;;;6.45;5.63;;;24.10;87.80;;;;;;4959314;28;20034;-53
2022/08/03 09:08:08;;;;;;;6.45;5.70;;;24.10;87.70;;;;;;4968711;28;20121;-54
2022/08/03 09:10:34;;;;;;;6.88;6.07;;;24.20;87.60;;;;;;4969627;28;20637;-53
2022/08/03 09:13:00;;;;;;;5.95;5.15;;;24.20;87.40;;;;;;4969326;28;20045;-51
2022/08/03 09:15:31;;;;;;;6.93;6.10;;;24.30;87.30;;;;;;4960519;28;20034;-54
2022/08/03 09:17:59;;;;;;;7.90;6.03;;;24.30;87.10;;;;;;4971116;28;20152;-51
2022/08/03 09:20:30;;;;;;;7.18;6.07;;;24.30;86.80;;;;;;4969874;28;20114;-54
2022/08/03 09:23:07;;;;;;;6.80;6.10;;;24.30;86.70;;;;;;4972574;28;20105;-52
2022/08/03 09:25:33;;;;;;;7.35;6.30;;;24.30;86.70;;;;;;4972940;28;20034;-52
2022/08/03 09:28:12;;;;;;;8.13;6.82;;;24.30;86.70;;;;;;4952913;28;20391;-52
2022/08/03 09:30:41;;;;;;;7.30;6.47;;;24.30;86.20;;;;;;4951761;28;20030;-53
2022/08/03 09:33:09;;;;;;;8.30;6.88;;;24.30;86.20;;;;;;4967981;28;20030;-53
2022/08/03 09:35:45;;;;;;;7.00;6.28;;;24.30;86.00;;;;;;4968122;28;20026;-54
2022/08/03 09:38:14;;;;;;;7.43;6.63;;;24.30;86.00;;;;;;4977601;28;20069;-54
2022/08/03 09:40:41;;;;;;;7.43;6.63;;;24.30;86.10;;;;;;4984097;28;20075;-53
2022/08/03 09:43:08;;;;;;;7.90;5.60;;;24.30;85.80;;;;;;4970117;28;20034;-55
2022/08/03 09:45:36;;;;;;;6.78;5.72;;;24.30;85.70;;;;;;4975666;28;20053;-54
2022/08/03 09:48:21;;;;;;;6.57;5.70;;;24.30;85.30;;;;;;4978494;28;20058;-55
2022/08/03 09:50:53;;;;;;;6.85;6.15;;;24.40;85.10;;;;;;4968927;28;20125;-56
2022/08/03 09:53:20;;;;;;;6.03;5.43;;;24.40;85.00;;;;;;4976665;28;20030;-55
2022/08/03 09:55:52;;;;;;;6.72;5.45;;;24.40;85.00;;;;;;4978017;28;20070;-54
2022/08/03 09:58:21;;;;;;;7.82;6.97;;;24.40;84.90;;;;;;4968163;28;20475;-56
2022/08/03 10:00:53;;;;;;;8.57;7.57;;;24.50;85.00;;;;;;4973130;28;20105;-55
2022/08/03 10:03:19;;;;;;;8.20;7.28;;;24.50;84.80;;;;;;4969114;28;20038;-55
2022/08/03 10:05:45;;;;;;;7.93;6.80;;;24.50;84.80;;;;;;4963947;28;20072;-53
2022/08/03 10:08:15;;;;;;;8.60;7.70;;;24.50;84.70;;;;;;4974734;28;20665;-56
2022/08/03 10:10:43;;;;;;;9.75;8.30;;;24.50;84.80;;;;;;4966270;28;20030;-55
2022/08/03 10:13:12;;;;;;;7.95;7.15;;;24.50;85.00;;;;;;4968432;28;20042;-54
2022/08/03 10:15:39;;;;;;;8.55;7.32;;;24.50;85.10;;;;;;4953189;28;20558;-55
2022/08/03 10:18:05;;;;;;;9.13;6.82;;;24.50;85.30;;;;;;4968506;28;20038;-54
2022/08/03 10:20:35;;;;;;;7.88;7.00;;;24.50;85.30;;;;;;4974239;28;20110;-55
2022/08/03 10:23:02;;;;;;;9.18;8.10;;;24.50;85.30;;;;;;4969519;28;20070;-54
2022/08/03 10:25:30;;;;;;;8.77;6.97;;;24.50;85.00;;;;;;4975936;28;20136;-55
2022/08/03 10:27:57;;;;;;;7.13;6.35;;;24.50;84.90;;;;;;4984160;28;20430;-54
2022/08/03 10:30:26;;;;;;;8.30;7.45;;;24.50;85.10;;;;;;4975140;28;20042;-56
2022/08/03 10:32:56;;;;;;;9.20;8.30;;;24.50;84.90;;;;;;4970167;28;20053;-57
2022/08/03 10:35:23;;;;;;;10.18;8.88;;;24.50;85.00;;;;;;4977196;28;20038;-55
2022/08/03 10:38:18;;;;;;;9.55;8.55;;;24.50;85.20;;;;;;4970450;28;20037;-56
2022/08/03 10:40:44;;;;;;;12.00;9.82;;;24.50;85.20;;;;;;4969762;28;20054;-56
2022/08/03 10:43:17;;;;;;;11.32;9.63;;;24.60;85.20;;;;;;4956594;28;20042;-55
2022/08/03 10:45:45;;;;;;;9.80;8.85;;;24.60;84.80;;;;;;4978060;28;20042;-55
2022/08/03 10:48:11;;;;;;;9.65;8.57;;;24.60;84.80;;;;;;4971177;28;20057;-55
2022/08/03 10:50:39;;;;;;;9.25;8.13;;;24.70;84.70;;;;;;4957672;28;20138;-55
2022/08/03 10:53:06;;;;;;;9.55;8.10;;;24.70;84.70;;;;;;4976595;28;20038;-55
2022/08/03 10:58:46;;;;;;;12.63;9.80;;;24.70;84.60;;;;;;4978079;28;20512;-56
2022/08/03 11:01:11;;;;;;;8.65;7.40;;;24.70;84.70;;;;;;4972660;28;23074;-56
2022/08/03 11:03:57;;;;;;;9.13;8.23;;;24.70;84.80;;;;;;4969779;28;20042;-57
2022/08/03 11:06:25;;;;;;;10.85;9.75;;;24.70;84.50;;;;;;4960690;28;20046;-56
2022/08/03 11:09:09;;;;;;;10.27;9.18;;;24.80;84.60;;;;;;4970499;28;20041;-55
2022/08/03 11:11:37;;;;;;;11.00;8.68;;;24.80;84.20;;;;;;4972187;28;20042;-56
2022/08/03 11:14:14;;;;;;;9.80;8.15;;;24.80;84.40;;;;;;4956783;28;20041;-55
2022/08/03 11:16:46;;;;;;;10.07;8.27;;;24.80;84.60;;;;;;4971044;28;20049;-57
2022/08/03 11:19:13;;;;;;;8.32;7.32;;;24.80;84.60;;;;;;4959933;28;20041;-57
2022/08/03 11:21:51;;;;;;;9.13;8.07;;;24.90;84.40;;;;;;4962941;28;20627;-53
2022/08/03 11:24:35;;;;;;;9.18;7.90;;;25.00;84.20;;;;;;4965237;28;20038;-57
2022/08/03 11:27:21;;;;;;;10.98;8.50;;;25.00;83.50;;;;;;4967884;28;20084;-55
2022/08/03 11:30:04;;;;;;;10.20;7.82;;;25.00;83.30;;;;;;4968947;28;21384;-54
2022/08/03 11:32:39;;;;;;;8.18;6.82;;;25.10;83.10;;;;;;4964200;28;20034;-56
2022/08/03 11:35:10;;;;;;;8.20;7.30;;;25.10;83.20;;;;;;4968466;28;20125;-57
2022/08/03 11:37:56;;;;;;;7.50;6.70;;;25.20;83.20;;;;;;4962531;28;20147;-56
2022/08/03 11:40:44;;;;;;;7.57;6.43;;;25.20;82.70;;;;;;4963526;28;20034;-54
2022/08/03 11:43:22;;;;;;;9.23;7.70;;;25.30;82.90;;;;;;4959870;28;20113;-55
2022/08/03 11:46:12;;;;;;;9.45;8.45;;;25.30;82.80;;;;;;4967712;28;20038;-56
2022/08/03 11:48:39;;;;;;;9.55;8.55;;;25.40;82.60;;;;;;4964840;28;20121;-55
2022/08/03 11:51:17;;;;;;;8.57;7.72;;;25.40;82.30;;;;;;4963854;28;20160;-56
2022/08/03 11:53:43;;;;;;;9.10;7.32;;;25.50;82.00;;;;;;4952323;28;20044;-55
2022/08/03 11:56:08;;;;;;;7.38;6.57;;;25.50;81.50;;;;;;4950634;28;20038;-56
2022/08/03 11:58:34;;;;;;;6.85;5.72;;;25.50;81.40;;;;;;4953816;28;20110;-57
2022/08/03 12:01:07;;;;;;;6.78;4.60;;;25.40;81.20;;;;;;4964557;28;20172;-54
2022/08/03 12:03:33;;;;;;;4.85;4.07;;;25.40;80.90;;;;;;4959744;28;20394;-55
2022/08/03 12:06:03;;;;;;;5.70;3.90;;;25.20;80.70;;;;;;4964416;28;20034;-56
2022/08/03 12:08:30;;;;;;;3.75;2.92;;;25.00;81.00;;;;;;4958357;28;20038;-55
2022/08/03 12:10:57;;;;;;;4.25;3.55;;;24.90;81.20;;;;;;4966170;28;20121;-56
2022/08/03 12:13:25;;;;;;;2.90;2.38;;;24.80;81.50;;;;;;4965936;28;21545;-55
2022/08/03 12:15:52;;;;;;;3.45;2.90;;;24.60;81.50;;;;;;4972695;28;20030;-55
2022/08/03 12:18:20;;;;;;;3.28;2.95;;;24.50;81.90;;;;;;4961312;28;20034;-56
2022/08/03 12:20:48;;;;;;;3.13;2.80;;;24.30;82.20;;;;;;4963070;28;20942;-55
2022/08/03 12:23:14;;;;;;;5.20;3.20;;;24.20;82.70;;;;;;4957723;28;20030;-55
2022/08/03 12:25:41;;;;;;;4.20;3.35;;;24.00;83.50;;;;;;4955297;28;20096;-55
2022/08/03 12:28:16;;;;;;;3.45;3.00;;;23.90;83.50;;;;;;4961450;28;20125;-55
2022/08/03 12:30:42;;;;;;;3.90;2.95;;;23.80;84.10;;;;;;4961782;28;20030;-52
2022/08/03 12:33:25;;;;;;;3.28;2.65;;;23.70;84.80;;;;;;4965554;28;20037;-53
2022/08/03 12:36:08;;;;;;;3.42;2.58;;;23.60;85.10;;;;;;4962193;28;20037;-54
2022/08/03 12:38:36;;;;;;;2.45;2.25;;;23.60;85.50;;;;;;4973853;28;20029;-52
2022/08/03 12:41:04;;;;;;;2.22;2.05;;;23.50;85.40;;;;;;4958557;28;20019;-53
2022/08/03 12:43:30;;;;;;;2.42;2.22;;;23.50;85.50;;;;;;4956830;28;20042;-55
2022/08/03 12:46:15;;;;;;;3.03;2.38;;;23.50;85.60;;;;;;4964679;28;20026;-54
2022/08/03 12:49:00;;;;;;;2.40;2.20;;;23.50;85.50;;;;;;4955577;28;20501;-54
2022/08/03 12:51:34;;;;;;;2.35;2.15;;;23.50;85.50;;;;;;4965748;28;20031;-53
2022/08/03 12:54:01;;;;;;;2.38;2.17;;;23.40;85.80;;;;;;4956465;28;20042;-51
2022/08/03 12:56:27;;;;;;;3.17;2.50;;;23.40;85.90;;;;;;4963767;28;20490;-53
2022/08/03 12:58:53;;;;;;;2.25;2.05;;;23.40;86.00;;;;;;4965101;28;20117;-55
2022/08/03 13:01:21;;;;;;;2.58;2.30;;;23.40;86.00;;;;;;4962885;28;21065;-54
2022/08/03 13:03:48;;;;;;;3.00;2.50;;;23.40;86.00;;;;;;4959138;28;20038;-55
2022/08/03 13:06:22;;;;;;;2.60;2.40;;;23.40;86.00;;;;;;4956513;28;20026;-56